EW8472 Isla MX current weather conditions

sailwx.info

Wind from 317 at 2 knots gusting 5

Air temperature 22.8° C
Dewpoint 12.7° C

Last reported at 2018-Oct-21 12:01 UTC.
Time now 2018-Oct-21 12:54 UTC

Location: N 18°09' W 095°34'.
View on Google Maps.

See reports from other nearby stations

  
Tides and Currents Weather Stations Pressure Air Temp Water Temp Dewpoint Dewpoint Depression Visibility Wind Speed Wind Dir Waves Ship Positions
date/time (UTC)wind fromknots sea level pressurealtimeterstation pressurevisibilityair tempwater tempwave heightnotes
2018-Oct-21 12:01 317 2 gusting 5 22.8
2018-Oct-21 11:31 319 1 gusting 4 22.8
2018-Oct-21 11:00 325 2 gusting 6 22.8
2018-Oct-21 10:46 355 3 gusting 8 22.8
2018-Oct-21 10:30 329 5 gusting 9 23.3
2018-Oct-21 10:08 325 1 gusting 4 23.3
2018-Oct-21 07:32 309 6 gusting 13 24.4
2018-Oct-21 07:01 309 6 gusting 16 24.4
2018-Oct-21 06:31 309 8 gusting 12 24.4
2018-Oct-21 06:01 309 3 gusting 8 23.9
2018-Oct-21 05:31 305 6 gusting 13 24.4
2018-Oct-21 05:02 309 7 gusting 14 25.0
2018-Oct-21 04:46 297 4 gusting 9 25.0
2018-Oct-21 04:32 309 4 gusting 8 25.0
2018-Oct-21 04:01 309 4 gusting 8 25.0
2018-Oct-21 03:31 309 3 gusting 6 25.0
2018-Oct-21 03:16 309 1 gusting 6 25.0
2018-Oct-21 02:48 293 1 gusting 7 25.0
2018-Oct-21 02:16 309 4 gusting 7 25.0
2018-Oct-21 02:01 309 2 gusting 7 25.0
2018-Oct-21 01:46 309 5 gusting 9 25.0
2018-Oct-21 01:17 309 6 gusting 10 25.0
2018-Oct-21 01:01 308 7 gusting 11 25.0
2018-Oct-21 00:32 308 6 gusting 14 25.0
2018-Oct-21 00:02 309 8 gusting 17 25.0
2018-Oct-20 23:46 309 7 gusting 13 25.0
2018-Oct-20 23:16 309 8 gusting 13 25.0
2018-Oct-20 23:01 309 7 gusting 14 25.0
2018-Oct-20 22:32 308 10 gusting 16 25.0
2018-Oct-20 22:02 308 10 gusting 15 25.0
2018-Oct-20 21:46 308 10 gusting 16 25.0
2018-Oct-20 21:17 309 10 gusting 17 25.6
2018-Oct-20 20:46 292 9 gusting 18 25.6
2018-Oct-20 20:32 309 8 gusting 14 25.0
2018-Oct-20 20:16 309 6 gusting 15 25.0
2018-Oct-20 20:01 309 9 gusting 15 25.0
2018-Oct-20 19:32 309 12 gusting 16 24.4
2018-Oct-20 19:17 309 10 gusting 17 25.0
2018-Oct-20 18:46 309 5 gusting 14 25.0
2018-Oct-20 18:31 309 8 gusting 13 25.0
2018-Oct-20 18:01 309 8 gusting 11 25.0
2018-Oct-20 17:31 289 3 gusting 7 25.0
2018-Oct-20 17:17 309 0 gusting 3 24.4
2018-Oct-20 17:01 219 24.4
2018-Oct-20 16:46 192 0 gusting 4 23.9
2018-Oct-20 16:17 044 0 gusting 1 23.3
2018-Oct-20 16:02 317 0 gusting 7 23.3
2018-Oct-20 15:31 317 4 gusting 7 23.3
2018-Oct-20 15:01 319 0 gusting 6 22.8
2018-Oct-20 14:47 317 2 gusting 7 22.8
2018-Oct-20 14:32 317 2 gusting 6 22.8
2018-Oct-20 14:01 317 3 gusting 6 22.8
2018-Oct-20 13:33 317 5 gusting 8 22.8
2018-Oct-20 13:02 317 5 gusting 9 22.8
2018-Oct-20 12:31 317 4 gusting 9 22.8
2018-Oct-20 12:01 317 3 gusting 10 22.8
2018-Oct-20 11:31 336 5 gusting 13 22.8
2018-Oct-20 11:18 320 3 gusting 12 22.8
2018-Oct-20 10:46 330 3 gusting 12 22.8
2018-Oct-20 10:17 327 4 gusting 8 22.8
2018-Oct-20 10:01 317 3 gusting 7 22.8
2018-Oct-20 09:32 317 1 gusting 8 22.8
2018-Oct-20 09:01 317 3 gusting 7 22.8
2018-Oct-20 08:32 317 4 gusting 7 22.8
2018-Oct-20 08:03 317 1 gusting 4 22.8
2018-Oct-20 07:32 317 2 gusting 6 22.8
2018-Oct-20 07:02 317 0 gusting 3 22.8
2018-Oct-20 06:46 317 1 gusting 4 22.8
2018-Oct-20 06:16 319 3 gusting 6 22.8
2018-Oct-20 05:46 317 3 gusting 7 22.8
2018-Oct-20 05:30 317 3 gusting 8 22.8
2018-Oct-20 05:01 317 3 gusting 6 22.8
2018-Oct-20 04:46 317 5 gusting 9 22.2
2018-Oct-20 04:31 329 8 gusting 12 22.8
2018-Oct-20 04:17 317 7 gusting 13 23.3
2018-Oct-20 03:46 317 2 gusting 7 23.3
2018-Oct-20 03:31 317 2 gusting 7 23.3
2018-Oct-20 03:16 317 3 gusting 8 23.3
2018-Oct-20 02:46 317 5 gusting 12 23.3
2018-Oct-20 02:16 317 7 gusting 13 23.3
2018-Oct-20 02:01 317 5 gusting 12 23.3
2018-Oct-20 01:46 317 6 gusting 12 23.9
2018-Oct-20 01:31 325 5 gusting 8 23.9
2018-Oct-20 01:01 322 6 gusting 11 23.9
2018-Oct-20 00:46 317 3 gusting 11 23.9
2018-Oct-20 00:16 323 4 gusting 13 23.9
2018-Oct-20 00:01 319 3 gusting 10 23.9
2018-Oct-19 23:31 317 3 gusting 13 23.9
2018-Oct-19 23:16 317 6 gusting 13 23.9
2018-Oct-19 23:01 317 6 gusting 13 23.9
2018-Oct-19 22:31 322 8 gusting 15 23.9
2018-Oct-19 22:16 317 6 gusting 13 23.9
2018-Oct-19 21:31 327 6 gusting 14 23.9
2018-Oct-19 21:03 317 8 gusting 13 23.9
2018-Oct-19 20:46 317 6 gusting 16 23.9
2018-Oct-19 20:17 337 8 gusting 14 23.9
2018-Oct-19 20:01 321 6 gusting 16 24.4
2018-Oct-19 19:31 317 8 gusting 15 24.4
2018-Oct-19 19:01 317 6 gusting 14 23.9
2018-Oct-19 18:31 317 7 gusting 18 23.9
2018-Oct-19 18:16 327 8 gusting 16 23.9
2018-Oct-19 17:46 317 5 gusting 11 23.9
2018-Oct-19 17:16 331 5 gusting 11 23.9
2018-Oct-19 17:01 331 6 gusting 11 23.9
2018-Oct-19 16:46 317 4 gusting 9 23.9
2018-Oct-19 16:16 317 6 gusting 10 23.9
2018-Oct-19 15:47 318 7 gusting 13 23.9
2018-Oct-19 15:16 320 6 gusting 12 23.9
2018-Oct-19 15:00 317 8 gusting 15 23.9
2018-Oct-19 14:31 329 7 gusting 11 23.9
2018-Oct-19 14:01 322 5 gusting 11 23.3
2018-Oct-19 13:46 317 6 gusting 10 23.3
2018-Oct-19 13:31 321 6 gusting 11 23.3
2018-Oct-19 13:02 317 6 gusting 12 23.3
2018-Oct-19 12:47 327 6 gusting 12 23.3
2018-Oct-19 12:17 331 4 gusting 9 23.3